createdAt,value
2023-05-04T00:00:37.830Z,11.37
2023-05-04T00:03:05.598Z,11.35
2023-05-04T00:05:33.472Z,11.29
2023-05-04T00:08:09.686Z,11.26
2023-05-04T00:10:41.521Z,11.28
2023-05-04T00:13:09.481Z,11.29
2023-05-04T00:15:36.785Z,11.30
2023-05-04T00:18:05.752Z,11.26
2023-05-04T00:20:34.428Z,11.28
2023-05-04T00:23:15.016Z,11.15
2023-05-04T00:25:43.903Z,11.17
2023-05-04T00:28:17.554Z,11.17
2023-05-04T00:30:46.820Z,11.13
2023-05-04T00:33:15.238Z,11.07
2023-05-04T00:35:43.756Z,11.00
2023-05-04T00:38:12.840Z,10.99
2023-05-04T00:40:45.251Z,11.00
2023-05-04T00:43:14.649Z,11.04
2023-05-04T00:45:52.920Z,11.00
2023-05-04T00:48:22.307Z,11.01
2023-05-04T00:50:51.372Z,11.02
2023-05-04T00:53:19.698Z,11.07
2023-05-04T00:57:28.079Z,11.18
2023-05-04T00:59:18.422Z,11.09
2023-05-04T01:02:05.307Z,11.12
2023-05-04T01:04:45.203Z,11.03
2023-05-04T01:08:15.995Z,11.05
2023-05-04T01:11:21.562Z,11.01
2023-05-04T01:13:56.317Z,10.96
2023-05-04T01:16:31.845Z,10.95
2023-05-04T01:19:20.724Z,11.02
2023-05-04T01:21:58.501Z,10.98
2023-05-04T01:24:53.847Z,10.93
2023-05-04T01:27:45.452Z,10.86
2023-05-04T01:30:29.428Z,10.85
2023-05-04T01:33:04.756Z,10.83
2023-05-04T01:35:36.989Z,10.86
2023-05-04T01:38:09.134Z,10.90
2023-05-04T01:43:54.154Z,11.04
2023-05-04T01:46:25.045Z,11.07
2023-05-04T01:51:59.160Z,11.13
2023-05-04T01:54:50.360Z,11.15
2023-05-04T01:57:35.533Z,11.14
2023-05-04T02:00:21.235Z,11.08
2023-05-04T02:02:48.089Z,11.08
2023-05-04T02:05:38.014Z,11.07
2023-05-04T02:11:10.289Z,11.10
2023-05-04T02:11:53.019Z,11.02
2023-05-04T02:14:29.059Z,10.97
2023-05-04T02:17:06.788Z,10.98
2023-05-04T02:19:34.723Z,10.91
2023-05-04T02:22:02.262Z,10.89
2023-05-04T02:24:30.772Z,10.84
2023-05-04T02:27:01.048Z,10.88
2023-05-04T02:29:30.103Z,10.83
2023-05-04T02:31:59.031Z,10.77
2023-05-04T02:34:32.753Z,10.79
2023-05-04T02:37:05.848Z,10.78
2023-05-04T02:39:40.800Z,10.70
2023-05-04T02:42:34.008Z,10.71
2023-05-04T02:45:01.862Z,10.76
2023-05-04T02:47:46.431Z,10.86
2023-05-04T02:50:15.633Z,10.70
2023-05-04T02:52:42.929Z,10.60
2023-05-04T02:55:10.317Z,10.51
2023-05-04T02:57:36.973Z,10.47
2023-05-04T03:00:05.818Z,10.40
2023-05-04T03:02:33.172Z,10.40
2023-05-04T03:05:00.058Z,10.40
2023-05-04T03:07:32.381Z,10.43
2023-05-04T03:10:00.453Z,10.43
2023-05-04T03:12:28.421Z,10.49
2023-05-04T03:14:55.526Z,10.34
2023-05-04T03:17:22.996Z,10.28
2023-05-04T03:19:49.798Z,10.27
2023-05-04T03:22:16.811Z,10.32
2023-05-04T03:24:46.738Z,10.27
2023-05-04T03:27:13.568Z,10.22
2023-05-04T03:29:40.586Z,10.22
2023-05-04T03:32:07.801Z,10.25
2023-05-04T03:34:35.163Z,10.29
2023-05-04T03:37:02.031Z,10.31
2023-05-04T03:39:29.167Z,10.29
2023-05-04T03:41:56.346Z,10.35
2023-05-04T03:44:23.847Z,10.33
2023-05-04T03:46:51.081Z,10.28
2023-05-04T03:49:18.438Z,10.28
2023-05-04T03:51:45.881Z,10.20
2023-05-04T03:54:12.808Z,10.26
2023-05-04T03:56:40.680Z,10.25
2023-05-04T03:59:07.358Z,10.28
2023-05-04T04:01:34.241Z,10.22
2023-05-04T04:04:01.761Z,10.25
2023-05-04T04:06:29.283Z,10.35
2023-05-04T04:08:56.258Z,10.31
2023-05-04T04:11:23.328Z,10.34
2023-05-04T04:13:51.048Z,10.37
2023-05-04T04:16:22.314Z,10.43
2023-05-04T04:18:49.570Z,10.53
2023-05-04T04:21:17.854Z,10.61
2023-05-04T04:23:44.824Z,10.66
2023-05-04T04:26:12.447Z,10.77
2023-05-04T04:28:39.404Z,10.84
2023-05-04T04:31:06.524Z,10.91
2023-05-04T04:33:34.840Z,10.98
2023-05-04T04:36:01.992Z,11.09
2023-05-04T04:38:35.324Z,11.21
2023-05-04T04:41:02.339Z,11.29
2023-05-04T04:43:29.248Z,11.42
2023-05-04T04:45:56.109Z,11.52
2023-05-04T04:48:27.031Z,11.72
2023-05-04T04:50:54.391Z,11.87
2023-05-04T04:53:22.076Z,12.10
2023-05-04T04:55:49.526Z,12.22
2023-05-04T04:58:18.888Z,12.48
2023-05-04T05:00:52.495Z,12.91
2023-05-04T05:03:24.596Z,13.43
2023-05-04T05:06:06.456Z,13.87
2023-05-04T05:08:34.832Z,14.17
2023-05-04T05:11:05.362Z,14.44
2023-05-04T05:13:32.860Z,14.74
2023-05-04T05:16:00.296Z,14.66
2023-05-04T05:18:30.250Z,14.56
2023-05-04T05:20:57.050Z,14.57
2023-05-04T05:23:25.960Z,14.64
2023-05-04T05:25:53.546Z,14.62
2023-05-04T05:28:22.195Z,14.55
2023-05-04T05:30:52.359Z,14.66
2023-05-04T05:33:29.686Z,14.75
2023-05-04T05:35:56.940Z,14.71
2023-05-04T05:38:24.292Z,14.49
2023-05-04T05:40:54.393Z,14.37
2023-05-04T05:43:21.905Z,14.43
2023-05-04T05:45:49.400Z,14.48
2023-05-04T05:48:36.559Z,14.60
2023-05-04T05:51:04.181Z,14.92
2023-05-04T05:53:31.941Z,15.19
2023-05-04T05:55:58.667Z,15.40
2023-05-04T05:58:25.562Z,15.48
2023-05-04T06:00:52.735Z,15.46
2023-05-04T06:03:19.907Z,15.52
2023-05-04T06:05:46.931Z,15.58
2023-05-04T06:08:14.421Z,15.61
2023-05-04T06:10:46.582Z,15.73
2023-05-04T06:13:24.947Z,15.82
2023-05-04T06:15:53.212Z,15.84
2023-05-04T06:18:20.544Z,15.84
2023-05-04T06:20:47.789Z,15.88
2023-05-04T06:23:15.464Z,15.84
2023-05-04T06:25:42.920Z,15.86
2023-05-04T06:28:09.862Z,15.88
2023-05-04T06:30:36.969Z,16.01
2023-05-04T06:33:07.771Z,15.97
2023-05-04T06:35:34.751Z,15.85
2023-05-04T06:38:01.753Z,15.95
2023-05-04T06:40:28.678Z,16.03
2023-05-04T06:42:55.449Z,16.12
2023-05-04T06:45:22.454Z,16.25
2023-05-04T06:47:50.359Z,16.31
2023-05-04T06:50:17.301Z,16.20
2023-05-04T06:52:49.332Z,16.28
2023-05-04T06:55:16.249Z,16.31
2023-05-04T06:57:43.993Z,16.38
2023-05-04T07:00:13.184Z,16.35
2023-05-04T07:02:40.185Z,16.49
2023-05-04T07:05:07.364Z,16.70
2023-05-04T07:07:34.178Z,16.95
2023-05-04T07:10:00.944Z,17.02
2023-05-04T07:12:28.543Z,17.10
2023-05-04T07:14:55.381Z,17.13
2023-05-04T07:17:22.727Z,17.22
2023-05-04T07:19:52.509Z,17.26
2023-05-04T07:22:20.930Z,17.22
2023-05-04T07:24:47.874Z,17.29
2023-05-04T07:27:14.643Z,17.27
2023-05-04T07:29:41.788Z,17.42
2023-05-04T07:32:08.654Z,17.47
2023-05-04T07:34:45.142Z,17.59
2023-05-04T07:37:13.862Z,17.66
2023-05-04T07:39:41.208Z,17.81
2023-05-04T07:42:08.700Z,17.90
2023-05-04T07:44:35.578Z,17.79
2023-05-04T07:47:02.946Z,17.79
2023-05-04T07:49:29.878Z,17.88
2023-05-04T07:51:56.692Z,17.93
2023-05-04T07:54:23.451Z,18.01
2023-05-04T07:56:50.192Z,18.06
2023-05-04T07:59:20.636Z,18.07
2023-05-04T08:01:47.629Z,18.13
2023-05-04T08:04:14.388Z,18.12
2023-05-04T08:06:42.256Z,18.07
2023-05-04T08:09:12.595Z,17.95
2023-05-04T08:11:42.800Z,17.60
2023-05-04T08:14:09.625Z,17.22
2023-05-04T08:16:36.960Z,16.98
2023-05-04T08:19:04.166Z,16.46
2023-05-04T08:21:31.651Z,15.94
2023-05-04T08:23:58.487Z,15.74
2023-05-04T08:26:25.745Z,15.64
2023-05-04T08:28:53.176Z,15.62
2023-05-04T08:31:20.091Z,15.64
2023-05-04T08:33:47.110Z,15.67
2023-05-04T08:36:14.328Z,15.49
2023-05-04T08:38:41.321Z,15.46
2023-05-04T08:41:09.147Z,15.33
2023-05-04T08:43:36.552Z,15.30
2023-05-04T08:46:05.063Z,15.22
2023-05-04T08:48:34.342Z,15.12
2023-05-04T08:51:02.778Z,15.19
2023-05-04T08:53:31.874Z,15.21
2023-05-04T08:56:04.286Z,15.07
2023-05-04T08:58:38.154Z,15.09
2023-05-04T09:01:07.258Z,15.25
2023-05-04T09:03:36.677Z,15.27
2023-05-04T09:06:04.301Z,15.34
2023-05-04T09:08:31.556Z,15.47
2023-05-04T09:10:58.778Z,15.56
2023-05-04T09:13:26.926Z,15.74
2023-05-04T09:15:56.550Z,15.87
2023-05-04T09:18:26.579Z,16.02
2023-05-04T09:20:53.940Z,16.08
2023-05-04T09:23:22.730Z,16.25
2023-05-04T09:25:52.557Z,16.42
2023-05-04T09:28:22.062Z,16.64
2023-05-04T09:30:51.961Z,16.80
2023-05-04T09:33:27.541Z,17.09
2023-05-04T09:35:54.374Z,17.56
2023-05-04T09:38:26.862Z,18.03
2023-05-04T09:40:54.292Z,18.43
2023-05-04T09:43:21.374Z,18.66
2023-05-04T09:45:49.435Z,19.02
2023-05-04T09:48:29.567Z,19.41
2023-05-04T09:50:59.039Z,20.01
2023-05-04T09:53:31.080Z,20.51
2023-05-04T09:56:18.404Z,20.92
2023-05-04T09:58:46.950Z,21.39
2023-05-04T10:01:14.331Z,21.60
2023-05-04T10:03:43.348Z,21.49
2023-05-04T10:06:12.021Z,21.51
2023-05-04T10:08:42.148Z,21.46
2023-05-04T10:11:09.270Z,21.39
2023-05-04T10:13:36.576Z,21.35
2023-05-04T10:16:13.042Z,21.27
2023-05-04T10:19:08.259Z,21.17
2023-05-04T10:21:35.558Z,21.12
2023-05-04T10:24:22.609Z,20.37
2023-05-04T10:26:53.779Z,20.25
2023-05-04T10:29:23.837Z,20.18
2023-05-04T10:31:52.194Z,20.10
2023-05-04T10:34:49.216Z,19.94
2023-05-04T10:37:18.874Z,19.83
2023-05-04T10:39:56.259Z,19.75
2023-05-04T10:42:23.384Z,19.66
2023-05-04T10:44:58.549Z,19.43
2023-05-04T10:47:34.283Z,19.11
2023-05-04T10:50:09.502Z,18.74
2023-05-04T10:53:06.989Z,18.62
2023-05-04T10:55:49.640Z,18.39
2023-05-04T10:58:28.973Z,18.20
2023-05-04T11:00:55.998Z,18.01
2023-05-04T11:03:43.972Z,17.74
2023-05-04T11:06:23.445Z,17.58
2023-05-04T11:09:02.547Z,17.54
2023-05-04T11:11:29.421Z,17.61
2023-05-04T11:14:21.623Z,17.66
2023-05-04T11:16:52.244Z,17.66
2023-05-04T11:19:19.375Z,17.64
2023-05-04T11:21:47.425Z,17.59
2023-05-04T11:24:30.308Z,17.51
2023-05-04T11:26:57.018Z,17.22
2023-05-04T11:29:24.056Z,17.15
2023-05-04T11:31:55.514Z,17.04
2023-05-04T11:34:30.327Z,16.98
2023-05-04T11:37:00.824Z,17.00
2023-05-04T11:39:32.579Z,17.14
2023-05-04T11:42:01.148Z,17.25
2023-05-04T11:44:30.202Z,17.42
2023-05-04T11:46:57.096Z,17.66
2023-05-04T11:49:26.432Z,17.67
2023-05-04T11:51:53.260Z,17.65
2023-05-04T11:54:23.989Z,17.69
2023-05-04T11:56:50.924Z,17.70
2023-05-04T11:59:18.000Z,17.86
2023-05-04T12:01:44.913Z,17.81
2023-05-04T12:04:11.910Z,17.68
2023-05-04T12:06:38.847Z,17.50
2023-05-04T12:09:06.679Z,17.35
2023-05-04T12:11:38.596Z,17.23
2023-05-04T12:14:15.571Z,17.02
2023-05-04T12:16:53.740Z,16.82
2023-05-04T12:19:20.878Z,16.70
2023-05-04T12:21:53.257Z,16.69
2023-05-04T12:24:22.727Z,16.56
2023-05-04T12:26:50.068Z,16.51
2023-05-04T12:29:17.153Z,16.51
2023-05-04T12:31:44.255Z,16.46
2023-05-04T12:34:11.789Z,16.47
2023-05-04T12:36:38.471Z,16.37
2023-05-04T12:39:05.326Z,16.13
2023-05-04T12:41:32.809Z,16.06
2023-05-04T12:44:17.167Z,15.91
2023-05-04T12:46:44.943Z,15.75
2023-05-04T12:49:14.624Z,15.57
2023-05-04T12:51:42.753Z,15.54
2023-05-04T12:54:11.216Z,15.48
2023-05-04T12:56:39.846Z,15.42
2023-05-04T12:59:07.348Z,15.19
2023-05-04T13:01:34.439Z,15.11
2023-05-04T13:04:01.435Z,15.07
2023-05-04T13:06:28.936Z,15.10
2023-05-04T13:08:56.632Z,15.17
2023-05-04T13:11:25.172Z,15.06
2023-05-04T13:13:55.634Z,14.78
2023-05-04T13:16:22.781Z,14.63
2023-05-04T13:18:49.878Z,14.63
2023-05-04T13:21:16.849Z,14.55
2023-05-04T13:23:43.730Z,14.48
2023-05-04T13:26:10.924Z,14.45
2023-05-04T13:28:39.395Z,14.47
2023-05-04T13:31:06.480Z,14.47
2023-05-04T13:33:34.249Z,14.40
2023-05-04T13:36:03.598Z,14.36
2023-05-04T13:38:30.435Z,14.39
2023-05-04T13:40:57.450Z,14.42
2023-05-04T13:43:25.087Z,14.41
2023-05-04T13:45:52.816Z,14.42
2023-05-04T13:48:21.297Z,14.41
2023-05-04T13:50:48.591Z,14.36
2023-05-04T13:53:16.386Z,14.21
2023-05-04T13:55:43.552Z,14.15
2023-05-04T13:58:11.112Z,14.14
2023-05-04T14:00:38.315Z,14.14
2023-05-04T14:03:05.285Z,13.98
2023-05-04T14:05:32.594Z,13.99
2023-05-04T14:07:59.718Z,13.97
2023-05-04T14:10:29.372Z,13.92
2023-05-04T14:12:56.552Z,13.95
2023-05-04T14:15:24.891Z,13.88
2023-05-04T14:17:51.596Z,13.82
2023-05-04T14:20:18.429Z,13.74
2023-05-04T14:22:45.565Z,13.70
2023-05-04T14:25:13.299Z,13.72
2023-05-04T14:27:44.088Z,13.69
2023-05-04T14:30:14.818Z,13.66
2023-05-04T14:32:41.928Z,13.55
2023-05-04T14:35:12.691Z,13.55
2023-05-04T14:37:40.852Z,13.51
2023-05-04T14:40:09.826Z,13.37
2023-05-04T14:42:37.369Z,13.28
2023-05-04T14:45:05.858Z,13.24
2023-05-04T14:47:33.822Z,13.20
2023-05-04T14:50:04.556Z,13.18
2023-05-04T14:52:33.529Z,13.14
2023-05-04T14:55:07.484Z,13.12
2023-05-04T14:57:35.486Z,13.04
2023-05-04T15:00:09.738Z,13.07
2023-05-04T15:02:42.123Z,13.03
2023-05-04T15:05:13.301Z,13.05
2023-05-04T15:07:48.847Z,13.06
2023-05-04T15:15:50.540Z,12.95
2023-05-04T15:18:18.601Z,12.90
2023-05-04T15:20:45.686Z,12.82
2023-05-04T15:23:12.741Z,12.77
2023-05-04T15:25:43.515Z,12.75
2023-05-04T15:28:13.495Z,12.74
2023-05-04T15:30:42.358Z,12.79
2023-05-04T15:33:09.514Z,12.74
2023-05-04T15:35:37.072Z,12.77
2023-05-04T15:38:04.591Z,12.69
2023-05-04T15:40:31.824Z,12.70
2023-05-04T15:42:58.585Z,12.64
2023-05-04T15:45:26.111Z,12.58
2023-05-04T15:47:54.399Z,12.57
2023-05-04T15:50:21.600Z,12.55
2023-05-04T15:52:48.638Z,12.58
2023-05-04T15:55:25.543Z,12.56
2023-05-04T15:57:54.483Z,12.57
2023-05-04T16:00:21.803Z,12.59
2023-05-04T16:02:48.633Z,12.56
2023-05-04T16:05:15.739Z,12.55
2023-05-04T16:07:42.754Z,12.49
2023-05-04T16:10:10.321Z,12.46
2023-05-04T16:12:41.353Z,12.43
2023-05-04T16:15:08.699Z,12.44
2023-05-04T16:17:36.766Z,12.42
2023-05-04T16:20:09.906Z,12.40
2023-05-04T16:22:38.873Z,12.38
2023-05-04T16:25:06.791Z,12.31
2023-05-04T16:27:34.866Z,12.28
2023-05-04T16:30:01.784Z,12.29
2023-05-04T16:32:28.670Z,12.30
2023-05-04T16:34:55.554Z,12.36
2023-05-04T16:37:23.121Z,12.29
2023-05-04T16:39:50.552Z,12.25
2023-05-04T16:42:19.035Z,12.19
2023-05-04T16:44:47.568Z,12.16
2023-05-04T16:47:14.865Z,12.13
2023-05-04T16:49:42.202Z,12.09
2023-05-04T16:52:12.360Z,12.07
2023-05-04T16:54:39.391Z,12.12
2023-05-04T16:57:09.503Z,12.07
2023-05-04T16:59:36.534Z,12.05
2023-05-04T17:02:03.328Z,12.04
2023-05-04T17:04:31.584Z,12.04
2023-05-04T17:06:58.714Z,12.03
2023-05-04T17:09:25.556Z,12.03
2023-05-04T17:11:52.391Z,12.04
2023-05-04T17:14:19.214Z,12.01
2023-05-04T17:16:47.990Z,12.04
2023-05-04T17:19:15.087Z,12.01
2023-05-04T17:21:52.299Z,12.10
2023-05-04T17:24:19.532Z,12.02
2023-05-04T17:26:47.109Z,11.96
2023-05-04T17:29:14.637Z,11.98
2023-05-04T17:31:42.048Z,12.00
2023-05-04T17:34:12.419Z,11.97
2023-05-04T17:36:40.577Z,11.98
2023-05-04T17:39:07.833Z,12.00
2023-05-04T17:41:34.740Z,11.99
2023-05-04T17:44:01.686Z,11.98
2023-05-04T17:46:29.437Z,11.97
2023-05-04T17:48:59.252Z,12.01
2023-05-04T17:51:26.370Z,11.94
2023-05-04T17:53:53.824Z,11.93
2023-05-04T17:56:21.624Z,11.97
2023-05-04T17:58:48.577Z,11.99
2023-05-04T18:01:19.769Z,11.99
2023-05-04T18:03:48.202Z,11.96
2023-05-04T18:06:15.214Z,11.97
2023-05-04T18:08:42.739Z,11.95
2023-05-04T18:11:09.794Z,11.95
2023-05-04T18:13:37.260Z,12.01
2023-05-04T18:16:04.810Z,11.97
2023-05-04T18:18:32.321Z,11.97
2023-05-04T18:21:02.100Z,11.93
2023-05-04T18:23:54.046Z,11.92
2023-05-04T18:26:23.012Z,11.95
2023-05-04T18:28:59.229Z,11.95
2023-05-04T18:32:00.470Z,12.01
2023-05-04T18:34:28.577Z,11.89
2023-05-04T18:36:58.852Z,11.85
2023-05-04T18:39:25.915Z,11.92
2023-05-04T18:41:52.978Z,11.95
2023-05-04T18:44:20.177Z,11.95
2023-05-04T18:46:47.331Z,11.96
2023-05-04T18:49:14.812Z,11.94
2023-05-04T18:51:42.154Z,11.93
2023-05-04T18:54:09.466Z,12.01
2023-05-04T18:56:41.588Z,12.01
2023-05-04T18:59:31.116Z,12.01
2023-05-04T19:02:10.062Z,12.00
2023-05-04T19:04:37.123Z,11.99
2023-05-04T19:07:14.420Z,11.99
2023-05-04T19:09:43.672Z,12.00
2023-05-04T19:12:22.622Z,11.99
2023-05-04T19:14:56.043Z,12.00
2023-05-04T19:17:26.087Z,11.99
2023-05-04T19:19:53.240Z,11.94
2023-05-04T19:22:25.239Z,11.95
2023-05-04T19:24:53.416Z,11.98
2023-05-04T19:27:20.679Z,11.99
2023-05-04T19:29:48.641Z,11.97
2023-05-04T19:32:25.452Z,11.98
2023-05-04T19:38:02.855Z,11.93
2023-05-04T19:40:30.043Z,11.94
2023-05-04T19:42:57.098Z,11.93
2023-05-04T19:45:24.079Z,11.93
2023-05-04T19:47:52.789Z,11.91
2023-05-04T19:50:20.125Z,11.90
2023-05-04T19:52:47.776Z,11.91
2023-05-04T19:55:16.806Z,11.89
2023-05-04T19:57:47.653Z,11.89
2023-05-04T20:00:21.328Z,11.89
2023-05-04T20:02:52.217Z,11.88
2023-05-04T20:05:23.334Z,11.87
2023-05-04T20:07:50.496Z,11.88
2023-05-04T20:10:21.156Z,11.85
2023-05-04T20:12:48.537Z,11.87
2023-05-04T20:15:16.408Z,11.90
2023-05-04T20:17:45.394Z,11.87
2023-05-04T20:20:20.129Z,11.80
2023-05-04T20:22:52.956Z,11.80
2023-05-04T20:28:23.868Z,11.81
2023-05-04T20:30:57.905Z,11.73
2023-05-04T20:33:25.393Z,11.78
2023-05-04T20:35:54.833Z,11.79
2023-05-04T20:38:22.054Z,11.82
2023-05-04T20:40:50.941Z,11.81
2023-05-04T20:43:19.650Z,11.76
2023-05-04T20:45:47.614Z,11.86
2023-05-04T20:48:14.953Z,11.86
2023-05-04T20:50:53.189Z,11.82
2023-05-04T20:53:23.965Z,11.79
2023-05-04T20:55:50.662Z,11.71
2023-05-04T20:58:20.683Z,11.66
2023-05-04T21:00:55.830Z,11.66
2023-05-04T21:03:23.651Z,11.66
2023-05-04T21:05:51.056Z,11.60
2023-05-04T21:08:28.341Z,11.59
2023-05-04T21:10:56.680Z,11.62
2023-05-04T21:13:24.227Z,11.60
2023-05-04T21:15:54.584Z,11.61
2023-05-04T21:18:24.677Z,11.64
2023-05-04T21:20:51.998Z,11.57
2023-05-04T21:23:19.229Z,11.56
2023-05-04T21:25:46.680Z,11.61
2023-05-04T21:28:15.716Z,11.65
2023-05-04T21:30:43.145Z,11.62
2023-05-04T21:33:10.390Z,11.65
2023-05-04T21:35:37.762Z,11.61
2023-05-04T21:38:05.252Z,11.60
2023-05-04T21:40:35.368Z,11.60
2023-05-04T21:43:02.980Z,11.58
2023-05-04T21:45:33.808Z,11.62
2023-05-04T21:48:02.760Z,11.63
2023-05-04T21:50:30.376Z,11.63
2023-05-04T21:53:00.884Z,11.64
2023-05-04T21:55:30.653Z,11.65
2023-05-04T21:57:58.185Z,11.64
2023-05-04T22:00:25.825Z,11.65
2023-05-04T22:02:59.206Z,11.65
2023-05-04T22:05:26.732Z,11.59
2023-05-04T22:07:54.006Z,11.54
2023-05-04T22:10:21.383Z,11.60
2023-05-04T22:12:49.186Z,11.59
2023-05-04T22:15:18.739Z,11.59
2023-05-04T22:17:49.240Z,11.57
2023-05-04T22:20:16.619Z,11.59
2023-05-04T22:22:44.382Z,11.62
2023-05-04T22:25:14.806Z,11.60
2023-05-04T22:27:42.465Z,11.55
2023-05-04T22:30:10.695Z,11.56
2023-05-04T22:32:37.954Z,11.57
2023-05-04T22:35:05.696Z,11.53
2023-05-04T22:37:36.311Z,11.54
2023-05-04T22:40:15.630Z,11.52
2023-05-04T22:42:46.550Z,11.54
2023-05-04T22:45:15.230Z,11.53
2023-05-04T22:47:43.357Z,11.52
2023-05-04T22:50:14.213Z,11.52
2023-05-04T22:52:42.250Z,11.51
2023-05-04T22:55:12.747Z,11.50
2023-05-04T22:57:40.162Z,11.52
2023-05-04T23:00:08.624Z,11.59
2023-05-04T23:05:28.632Z,11.57
2023-05-04T23:07:56.294Z,11.56
2023-05-04T23:10:23.859Z,11.58
2023-05-04T23:12:53.831Z,11.55
2023-05-04T23:15:23.476Z,11.52
2023-05-04T23:17:53.991Z,11.52
2023-05-04T23:20:21.516Z,11.57
2023-05-04T23:22:48.629Z,11.55
2023-05-04T23:25:15.748Z,11.52
2023-05-04T23:27:46.212Z,11.55
2023-05-04T23:30:14.514Z,11.56
2023-05-04T23:32:41.779Z,11.61
2023-05-04T23:35:09.513Z,11.59
2023-05-04T23:37:37.115Z,11.60
2023-05-04T23:40:05.895Z,11.61
2023-05-04T23:42:33.862Z,11.56
2023-05-04T23:45:01.146Z,11.56
2023-05-04T23:47:31.566Z,11.55
2023-05-04T23:50:03.321Z,11.53
2023-05-04T23:52:31.119Z,11.54
2023-05-04T23:54:58.281Z,11.57
2023-05-04T23:57:25.345Z,11.60
2023-05-04T23:59:53.933Z,11.58
